Flight Track Log - Related Links

Times and Time Zones

All times are in EDT time to prevent confusion due to time zone crossing. See the TSU215 flight status page for this flight to view local times or setup timezone preferences in your user account.

Time Position Orientation Groundspeed Altitude Reporting Facility
EDT Latitude Longitude Course Direction KTS MPH feet Rate Location/Type
Sun 08:25:01 AM 42.2778 -89.0181 46° Northeast 191 220 4,000  Level Chicago Center
Sun 08:26:02 AM 42.3392 -88.9625 34° Northeast 262 302 7,400 2,927 Climbing Chicago Center
Sun 08:27:04 AM 42.4003 -88.9100 32° Northeast 259 298 10,000 2,049 Climbing Chicago Center
Sun 08:28:05 AM 42.4731 -88.8431 34° Northeast 316 364 11,600 2,262 Climbing Chicago Center
Sun 08:29:00 AM 42.5609 -88.5015 46° Northeast  Level FlightAware Approximate
Sun 08:29:06 AM 42.5564 -88.7564 37° Northeast 373 429 14,600  Level Chicago Center
Sun 08:30:00 AM 42.6280 -88.4075 46° Northeast  Level FlightAware Approximate
Sun 08:30:07 AM 42.6611 -88.6544 36° Northeast 394 453 18,500  Level Chicago Center
Sun 08:31:09 AM 42.7567 -88.5656 34° Northeast 413 475 21,200 2,390 Climbing Chicago Center
Sun 08:32:10 AM 42.7939 -88.4100 72° East 435 501 23,400 2,459 Climbing Chicago Center
Sun 08:33:11 AM 42.7994 -88.2461 87° East 438 504 26,200 2,410 Climbing Chicago Center
Sun 08:34:12 AM 42.7947 -88.0758 92° East 449 517 28,300 1,366 Climbing Chicago Center
Sun 08:35:14 AM 42.7933 -87.9000 91° East 462 532 29,000 341 Climbing Chicago Center
Sun 08:36:15 AM 42.7928 -87.7250 90° East 464 534 29,000  Level Chicago Center
Sun 08:37:16 AM 42.8478 -87.5614 65° Northeast 473 544 29,000  Level Chicago Center
Sun 08:38:17 AM 42.9125 -87.3703 65° Northeast 478 550 29,000  Level Chicago Center
Sun 08:39:19 AM 42.9331 -87.1928 81° East 482 555 29,000  Level Chicago Center
Sun 08:40:20 AM 42.9158 -87.0178 98° East 468 539 29,000  Level Chicago Center
Sun 08:41:21 AM 42.9022 -86.8394 96° East 472 543 29,000  Level Chicago Center
Sun 08:42:22 AM 42.8894 -86.6603 95° East 475 547 29,000  Level Chicago Center
Sun 08:43:24 AM 42.8753 -86.4831 96° East 475 547 29,000  Level Chicago Center
Sun 08:44:25 AM 42.8603 -86.3064 97° East 474 545 29,000  Level Chicago Center
Sun 08:45:26 AM 42.8433 -86.1314 97° East 474 545 29,000 -244 Level Chicago Center
Sun 08:46:28 AM 42.8256 -85.9214 97° East 475 547 28,500 -1,268 Descending Chicago Center
Sun 08:47:29 AM 42.8122 -85.7542 96° East 457 526 26,400 -1,721 Descending Chicago Center
Sun 08:48:30 AM 42.7983 -85.5931 97° East 438 504 25,000 -1,180 Descending Chicago Center
Sun 08:49:31 AM 42.7842 -85.4356 97° East 425 489 24,000 -927 Descending Chicago Center
Sun 08:50:33 AM 42.7661 -85.2781 99° East 423 487 23,100 -1,415 Descending Chicago Center
Sun 08:51:34 AM 42.7517 -85.1247 97° East 413 475 21,100 -1,033 Descending Chicago Center
Sun 08:52:35 AM 42.7400 -84.9769 96° East 397 457 21,000 -738 Descending Chicago Center
Sun 08:53:36 AM 42.7247 -84.8072 97° East 380 437 19,600 -1,659 Descending Chicago Center
Sun 08:54:38 AM 42.7150 -84.6700 95° East 367 422 17,600 -2,000 Descending Chicago Center
Sun 08:55:00 AM 42.7125 -84.6189 94° East 371 427 16,800 -2,122 Descending Cleveland Center
Sun 08:56:00 AM 42.7131 -84.4858 90° East 359 413 14,700 -2,050 Descending Cleveland Center
Sun 08:57:00 AM 42.7108 -84.3614 91° East 346 398 12,700 -1,682 Descending Cleveland Center
Sun 08:57:47 AM 42.7119 -84.2625 89° East 314 361 11,700 -1,235 Descending Cleveland Center
Sun 08:58:42 AM 42.7106 -84.1778 91° East 260 299 10,600 -1,151 Descending Cleveland Center
Sun 08:59:00 AM 42.7094 -84.1408 92° East 295 339 10,300 -1,333 Descending Cleveland Center
Sun 08:59:36 AM 42.7133 -84.0875 84° East 259 298 9,400 -1,400 Descending Cleveland Center
Sun 09:00:00 AM 42.7164 -84.0564 82° East 264 304 8,900 -1,522 Descending Cleveland Center
Sun 09:00:43 AM 42.7083 -83.9742 98° East 254 292 7,700 -1,500 Descending Cleveland Center
Sun 09:01:00 AM 42.7069 -83.9514 95° East 252 290 7,400 -1,418 Descending Cleveland Center
Sun 09:01:38 AM 42.7003 -83.8889 98° East 250 288 6,400 -1,400 Descending Cleveland Center
Sun 09:02:00 AM 42.6989 -83.8717 96° East 247 284 6,000 -1,377 Descending Cleveland Center
Sun 09:02:39 AM 42.6861 -83.8061 105° East 201 231 5,000 -1,245 Descending Cleveland Center
Sun 09:03:46 AM 42.6717 -83.7264 104° East 204 235 3,800 -844 Descending Cleveland Center
Sun 09:04:47 AM 42.6633 -83.6411 98° East 219 252 3,200 -492 Descending Cleveland Center
Sun 09:05:48 AM 42.6611 -83.5706 92° East 167 192 2,800 -466 Descending Cleveland Center
Sun 09:06:30 AM 42.6600 -83.5308 92° East 141 162 2,400 -641 Descending Cleveland Center
Sun 09:07:31 AM 42.6636 -83.4775 85° East 140 161 1,700 -689 Descending Cleveland Center
Sun 09:09:00 AM 42.6500 -83.4167 90° East  Level FlightAware Approximate
Sun 09:16:00 AM 42.6656 -83.4205 90° East  Level Estimated
Sun 09:17:00 AM 42.6656 -83.4205 90° East  Level Estimated

Login

Don't have an account? Register now (free) for customized features, flight alerts, and more!